createdAt,value
2023-04-11T00:00:35.790Z,0.80
2023-04-11T00:03:44.262Z,1.00
2023-04-11T00:06:52.540Z,1.00
2023-04-11T00:10:03.218Z,1.13
2023-04-11T00:13:11.573Z,1.00
2023-04-11T00:16:20.528Z,1.07
2023-04-11T00:19:29.232Z,0.90
2023-04-11T00:22:38.925Z,0.70
2023-04-11T00:25:48.662Z,0.80
2023-04-11T00:28:57.231Z,1.20
2023-04-11T00:32:05.981Z,0.90
2023-04-11T00:35:14.525Z,1.47
2023-04-11T00:38:22.630Z,1.20
2023-04-11T00:41:32.126Z,1.10
2023-04-11T00:44:40.249Z,0.90
2023-04-11T00:47:48.452Z,0.70
2023-04-11T00:50:57.652Z,0.90
2023-04-11T00:54:09.411Z,0.90
2023-04-11T00:57:19.916Z,0.90
2023-04-11T01:00:29.565Z,0.87
2023-04-11T01:03:41.293Z,1.00
2023-04-11T01:06:56.416Z,0.90
2023-04-11T01:10:07.058Z,0.80
2023-04-11T01:13:16.964Z,0.80
2023-04-11T01:16:25.704Z,0.87
2023-04-11T01:19:34.790Z,1.10
2023-04-11T01:22:44.217Z,0.83
2023-04-11T01:25:54.451Z,0.80
2023-04-11T01:29:03.809Z,0.80
2023-04-11T01:32:12.190Z,0.70
2023-04-11T01:35:20.606Z,1.00
2023-04-11T01:38:29.005Z,0.70
2023-04-11T01:41:40.692Z,1.00
2023-04-11T01:44:49.563Z,0.77
2023-04-11T01:47:58.127Z,0.80
2023-04-11T01:51:07.624Z,0.87
2023-04-11T01:54:16.087Z,1.10
2023-04-11T01:57:27.203Z,0.80
2023-04-11T02:00:36.897Z,0.70
2023-04-11T02:03:45.148Z,0.70
2023-04-11T02:06:53.545Z,0.70
2023-04-11T02:10:01.924Z,0.60
2023-04-11T02:13:11.954Z,0.63
2023-04-11T02:16:20.785Z,0.60
2023-04-11T02:19:29.826Z,0.57
2023-04-11T02:22:37.976Z,0.60
2023-04-11T02:25:48.943Z,0.60
2023-04-11T02:29:00.828Z,0.50
2023-04-11T02:32:09.039Z,0.57
2023-04-11T02:35:17.591Z,0.60
2023-04-11T02:38:25.822Z,0.50
2023-04-11T02:41:34.055Z,0.50
2023-04-11T02:44:43.536Z,0.60
2023-04-11T02:47:51.777Z,0.60
2023-04-11T02:51:00.048Z,0.70
2023-04-11T02:54:08.696Z,0.60
2023-04-11T02:57:18.849Z,0.60
2023-04-11T03:00:29.275Z,0.30
2023-04-11T03:03:44.195Z,0.47
2023-04-11T03:06:54.495Z,0.40
2023-04-11T03:10:02.947Z,0.50
2023-04-11T03:13:11.090Z,0.60
2023-04-11T03:16:21.103Z,0.40
2023-04-11T03:19:29.272Z,0.60
2023-04-11T03:22:39.301Z,0.40
2023-04-11T03:25:48.021Z,0.50
2023-04-11T03:28:58.362Z,0.50
2023-04-11T03:32:08.938Z,0.50
2023-04-11T03:35:20.522Z,0.50
2023-04-11T03:38:30.992Z,0.43
2023-04-11T03:41:39.383Z,0.37
2023-04-11T03:44:50.849Z,0.40
2023-04-11T03:48:00.563Z,0.50
2023-04-11T03:51:18.524Z,0.30
2023-04-11T03:54:41.843Z,0.40
2023-04-11T03:57:51.656Z,0.50
2023-04-11T04:01:00.107Z,0.33
2023-04-11T04:04:11.291Z,0.40
2023-04-11T04:07:23.906Z,0.40
2023-04-11T04:10:36.296Z,0.50
2023-04-11T04:13:45.695Z,0.40
2023-04-11T04:16:57.553Z,0.63
2023-04-11T04:20:11.326Z,0.50
2023-04-11T04:23:21.432Z,0.43
2023-04-11T04:26:40.015Z,0.50
2023-04-11T04:30:15.643Z,0.90
2023-04-11T04:33:42.658Z,0.60
2023-04-11T04:36:59.465Z,0.80
2023-04-11T04:40:20.648Z,0.73
2023-04-11T04:43:38.025Z,0.60
2023-04-11T04:46:55.453Z,0.50
2023-04-11T04:50:07.478Z,0.50
2023-04-11T04:53:16.932Z,0.60
2023-04-11T04:56:32.759Z,0.50
2023-04-11T04:59:41.679Z,0.77
2023-04-11T05:02:55.119Z,0.50
2023-04-11T05:06:07.020Z,0.57
2023-04-11T05:09:19.198Z,0.80
2023-04-11T05:12:29.354Z,0.50
2023-04-11T05:15:49.168Z,0.70
2023-04-11T05:18:57.807Z,0.57
2023-04-11T05:22:05.981Z,0.50
2023-04-11T05:25:21.174Z,0.50
2023-04-11T05:28:32.251Z,0.50
2023-04-11T05:31:41.352Z,0.50
2023-04-11T05:34:59.818Z,0.70
2023-04-11T05:38:16.471Z,0.53
2023-04-11T05:41:26.001Z,0.70
2023-04-11T05:44:34.083Z,0.80
2023-04-11T05:47:42.928Z,0.60
2023-04-11T05:50:51.813Z,0.70
2023-04-11T05:53:59.917Z,0.93
2023-04-11T05:57:09.493Z,0.87
2023-04-11T06:00:19.065Z,0.77
2023-04-11T06:03:27.659Z,0.80
2023-04-11T06:06:36.099Z,0.93
2023-04-11T06:09:44.322Z,0.73
2023-04-11T06:12:54.142Z,0.70
2023-04-11T06:16:03.107Z,0.80
2023-04-11T06:19:12.250Z,1.00
2023-04-11T06:22:20.304Z,1.57
2023-04-11T06:25:28.552Z,0.70
2023-04-11T06:28:38.107Z,0.70
2023-04-11T06:31:46.460Z,0.70
2023-04-11T06:34:54.722Z,1.00
2023-04-11T06:38:02.814Z,0.50
2023-04-11T06:41:10.859Z,0.50
2023-04-11T06:44:20.369Z,0.60
2023-04-11T06:47:28.574Z,0.80
2023-04-11T06:50:39.479Z,0.50
2023-04-11T06:53:47.552Z,0.50
2023-04-11T06:56:57.184Z,0.60
2023-04-11T07:00:09.505Z,1.17
2023-04-11T07:03:18.326Z,0.83
2023-04-11T07:06:27.119Z,0.73
2023-04-11T07:09:35.364Z,0.80
2023-04-11T07:12:43.459Z,0.90
2023-04-11T07:15:52.946Z,1.33
2023-04-11T07:19:01.037Z,1.10
2023-04-11T07:22:09.142Z,1.10
2023-04-11T07:25:17.343Z,0.83
2023-04-11T07:28:25.763Z,1.10
2023-04-11T07:31:35.692Z,0.90
2023-04-11T07:34:43.831Z,0.80
2023-04-11T07:37:53.606Z,0.90
2023-04-11T07:41:03.728Z,0.80
2023-04-11T07:44:11.846Z,0.70
2023-04-11T07:47:21.894Z,0.50
2023-04-11T07:50:31.103Z,0.80
2023-04-11T07:53:39.214Z,0.50
2023-04-11T07:56:47.609Z,0.93
2023-04-11T07:59:57.005Z,1.23
2023-04-11T08:03:09.557Z,0.97
2023-04-11T08:06:17.866Z,1.13
2023-04-11T08:09:27.557Z,0.70
2023-04-11T08:12:35.692Z,0.97
2023-04-11T08:15:43.987Z,0.40
2023-04-11T08:18:53.425Z,0.23
2023-04-11T08:22:01.586Z,0.27
2023-04-11T08:25:12.226Z,0.40
2023-04-11T08:28:20.884Z,0.33
2023-04-11T08:31:29.471Z,0.40
2023-04-11T08:34:38.942Z,0.53
2023-04-11T08:37:47.005Z,0.67
2023-04-11T08:40:56.577Z,0.60
2023-04-11T08:44:04.778Z,0.10
2023-04-11T08:47:16.521Z,0.20
2023-04-11T08:50:26.290Z,0.30
2023-04-11T08:53:39.874Z,0.20
2023-04-11T08:56:47.984Z,0.20
2023-04-11T09:00:00.196Z,0.20
2023-04-11T09:03:12.523Z,0.40
2023-04-11T09:06:22.421Z,0.20
2023-04-11T09:09:31.407Z,0.20
2023-04-11T09:12:39.557Z,0.40
2023-04-11T09:15:47.836Z,0.70
2023-04-11T09:18:56.139Z,1.63
2023-04-11T09:22:06.261Z,0.40
2023-04-11T09:25:14.698Z,0.60
2023-04-11T09:28:22.991Z,0.53
2023-04-11T09:31:43.183Z,0.77
2023-04-11T09:34:51.296Z,0.83
2023-04-11T09:38:03.484Z,1.10
2023-04-11T09:41:12.051Z,0.80
2023-04-11T09:44:20.307Z,0.60
2023-04-11T09:47:33.854Z,0.60
2023-04-11T09:50:44.190Z,0.50
2023-04-11T09:53:54.175Z,0.40
2023-04-11T09:57:06.293Z,0.30
2023-04-11T10:00:16.897Z,0.30
2023-04-11T10:03:26.716Z,2.07
2023-04-11T10:06:46.698Z,0.67
2023-04-11T10:09:56.400Z,0.90
2023-04-11T10:13:40.852Z,0.60
2023-04-11T10:17:16.278Z,0.60
2023-04-11T10:20:46.607Z,0.70
2023-04-11T10:24:14.065Z,0.20
2023-04-11T10:27:50.383Z,0.80
2023-04-11T10:31:04.732Z,0.67
2023-04-11T10:34:15.373Z,0.50
2023-04-11T10:37:34.670Z,0.70
2023-04-11T10:41:19.070Z,0.20
2023-04-11T10:44:28.603Z,0.90
2023-04-11T10:47:37.577Z,0.70
2023-04-11T10:50:46.724Z,0.60
2023-04-11T10:53:59.518Z,1.50
2023-04-11T10:57:07.970Z,0.50
2023-04-11T11:00:20.431Z,0.60
2023-04-11T11:03:34.144Z,0.50
2023-04-11T11:06:47.191Z,0.57
2023-04-11T11:10:02.973Z,0.50
2023-04-11T11:13:11.603Z,0.43
2023-04-11T11:16:23.690Z,0.30
2023-04-11T11:19:32.739Z,0.50
2023-04-11T11:22:40.908Z,0.20
2023-04-11T11:25:55.086Z,0.30
2023-04-11T11:29:03.535Z,0.40
2023-04-11T11:32:24.748Z,0.50
2023-04-11T11:35:33.122Z,0.70
2023-04-11T11:38:41.489Z,0.30
2023-04-11T11:41:50.443Z,0.50
2023-04-11T11:45:17.158Z,0.40
2023-04-11T11:48:26.718Z,0.50
2023-04-11T11:51:42.475Z,0.40
2023-04-11T11:54:50.688Z,0.23
2023-04-11T11:58:03.677Z,0.30
2023-04-11T12:01:17.110Z,0.30
2023-04-11T12:04:27.377Z,3.10
2023-04-11T12:07:39.471Z,1.50
2023-04-11T12:10:48.680Z,0.57
2023-04-11T12:13:57.048Z,0.60
2023-04-11T12:17:05.585Z,0.50
2023-04-11T12:20:16.180Z,0.50
2023-04-11T12:23:24.472Z,0.43
2023-04-11T12:26:32.969Z,0.50
2023-04-11T12:29:41.280Z,0.50
2023-04-11T12:32:49.717Z,0.50
2023-04-11T12:35:59.293Z,0.50
2023-04-11T12:39:08.207Z,0.50
2023-04-11T12:42:21.017Z,0.50
2023-04-11T12:45:34.020Z,0.50
2023-04-11T12:48:42.480Z,0.50
2023-04-11T12:51:52.125Z,0.70
2023-04-11T12:55:00.774Z,0.50
2023-04-11T12:58:09.418Z,0.60
2023-04-11T13:01:18.305Z,0.87
2023-04-11T13:04:26.595Z,0.80
2023-04-11T13:07:36.819Z,0.97
2023-04-11T13:10:47.020Z,1.00
2023-04-11T13:13:57.656Z,0.57
2023-04-11T13:17:06.077Z,1.27
2023-04-11T13:20:14.557Z,0.63
2023-04-11T13:23:25.948Z,1.60
2023-04-11T13:26:35.079Z,0.80
2023-04-11T13:29:43.180Z,3.73
2023-04-11T13:32:52.334Z,1.00
2023-04-11T13:36:00.758Z,1.00
2023-04-11T13:39:11.302Z,0.80
2023-04-11T13:42:21.691Z,0.70
2023-04-11T13:45:29.859Z,0.57
2023-04-11T13:48:38.422Z,0.50
2023-04-11T13:51:47.353Z,0.60
2023-04-11T13:54:56.920Z,0.40
2023-04-11T13:58:05.098Z,0.60
2023-04-11T14:01:13.385Z,0.40
2023-04-11T14:04:21.727Z,0.43
2023-04-11T14:07:30.598Z,0.53
2023-04-11T14:10:40.228Z,0.30
2023-04-11T14:13:48.795Z,0.30
2023-04-11T14:16:56.983Z,0.50
2023-04-11T14:20:06.834Z,0.40
2023-04-11T14:23:16.637Z,0.60
2023-04-11T14:26:26.913Z,0.70
2023-04-11T14:29:37.414Z,0.50
2023-04-11T14:32:45.713Z,0.57
2023-04-11T14:35:53.996Z,0.50
2023-04-11T14:39:02.219Z,0.40
2023-04-11T14:42:11.896Z,0.80
2023-04-11T14:45:20.221Z,0.60
2023-04-11T14:48:28.867Z,0.70
2023-04-11T14:51:38.052Z,0.60
2023-04-11T14:54:46.320Z,0.60
2023-04-11T14:57:57.132Z,0.57
2023-04-11T15:01:05.660Z,0.60
2023-04-11T15:04:14.560Z,0.70
2023-04-11T15:07:23.274Z,0.77
2023-04-11T15:10:32.069Z,0.40
2023-04-11T15:13:42.644Z,0.50
2023-04-11T15:16:52.006Z,0.60
2023-04-11T15:20:00.629Z,0.60
2023-04-11T15:23:09.011Z,0.60
2023-04-11T15:26:17.876Z,0.60
2023-04-11T15:29:28.235Z,0.70
2023-04-11T15:32:37.147Z,2.40
2023-04-11T15:35:49.441Z,0.90
2023-04-11T15:39:02.018Z,0.93
2023-04-11T15:42:10.366Z,0.40
2023-04-11T15:45:20.433Z,0.57
2023-04-11T15:48:28.856Z,0.30
2023-04-11T15:51:37.079Z,0.77
2023-04-11T15:54:45.588Z,0.40
2023-04-11T15:57:53.890Z,0.40
2023-04-11T16:01:03.644Z,0.60
2023-04-11T16:04:12.164Z,0.70
2023-04-11T16:07:23.082Z,0.57
2023-04-11T16:10:32.393Z,0.50
2023-04-11T16:13:40.580Z,0.73
2023-04-11T16:16:50.830Z,0.30
2023-04-11T16:19:59.106Z,0.60
2023-04-11T16:23:07.259Z,0.53
2023-04-11T16:26:16.092Z,0.83
2023-04-11T16:29:24.769Z,0.63
2023-04-11T16:32:34.401Z,0.70
2023-04-11T16:35:42.624Z,0.60
2023-04-11T16:38:50.993Z,0.30
2023-04-11T16:41:59.188Z,0.40
2023-04-11T16:45:09.898Z,0.50
2023-04-11T16:48:19.786Z,0.70
2023-04-11T16:51:28.436Z,0.60
2023-04-11T16:54:36.680Z,0.80
2023-04-11T16:57:44.903Z,0.70
2023-04-11T17:00:53.830Z,0.70
2023-04-11T17:04:03.570Z,0.47
2023-04-11T17:07:11.816Z,0.43
2023-04-11T17:10:21.433Z,0.50
2023-04-11T17:13:29.850Z,0.73
2023-04-11T17:16:38.021Z,0.60
2023-04-11T17:19:47.786Z,0.57
2023-04-11T17:22:55.947Z,0.50
2023-04-11T17:26:04.482Z,0.43
2023-04-11T17:29:12.900Z,0.50
2023-04-11T17:32:21.285Z,0.50
2023-04-11T17:35:30.867Z,1.03
2023-04-11T17:38:40.366Z,0.57
2023-04-11T17:41:48.570Z,0.60
2023-04-11T17:44:58.884Z,0.53
2023-04-11T17:48:09.313Z,0.77
2023-04-11T17:51:18.774Z,0.80
2023-04-11T17:54:26.874Z,0.50
2023-04-11T17:57:35.163Z,0.67
2023-04-11T18:00:55.600Z,2.80
2023-04-11T18:04:07.614Z,2.33
2023-04-11T18:07:18.265Z,1.20
2023-04-11T18:10:29.224Z,1.47
2023-04-11T18:13:37.482Z,1.20
2023-04-11T18:16:47.568Z,1.93
2023-04-11T18:19:55.755Z,1.23
2023-04-11T18:23:05.261Z,1.70
2023-04-11T18:26:13.312Z,1.47
2023-04-11T18:29:21.538Z,1.90
2023-04-11T18:32:36.739Z,1.27
2023-04-11T18:35:47.470Z,1.37
2023-04-11T18:38:57.025Z,1.33
2023-04-11T18:42:05.950Z,1.40
2023-04-11T18:45:15.635Z,1.23
2023-04-11T18:48:25.024Z,1.20
2023-04-11T18:51:35.633Z,1.40
2023-04-11T18:54:45.532Z,1.03
2023-04-11T18:57:57.135Z,1.20
2023-04-11T19:01:15.642Z,1.80
2023-04-11T19:04:26.295Z,1.70
2023-04-11T19:07:36.192Z,1.90
2023-04-11T19:10:46.264Z,5.93
2023-04-11T19:13:55.138Z,5.53
2023-04-11T19:17:04.213Z,3.73
2023-04-11T19:20:13.624Z,3.17
2023-04-11T19:23:22.007Z,2.60
2023-04-11T19:26:32.338Z,3.20
2023-04-11T19:29:40.482Z,2.90
2023-04-11T19:32:48.729Z,1.93
2023-04-11T19:35:57.167Z,1.87
2023-04-11T19:39:06.401Z,1.33
2023-04-11T19:42:16.346Z,1.10
2023-04-11T19:45:24.526Z,1.40
2023-04-11T19:48:33.060Z,1.10
2023-04-11T19:51:41.843Z,0.80
2023-04-11T19:54:50.105Z,0.87
2023-04-11T19:57:59.630Z,1.20
2023-04-11T20:01:08.305Z,1.10
2023-04-11T20:04:17.598Z,1.00
2023-04-11T20:07:25.965Z,0.70
2023-04-11T20:10:34.970Z,0.90
2023-04-11T20:13:45.223Z,0.80
2023-04-11T20:16:54.604Z,0.90
2023-04-11T20:20:06.579Z,1.00
2023-04-11T20:23:16.562Z,1.27
2023-04-11T20:26:24.927Z,2.53
2023-04-11T20:29:34.593Z,8.20
2023-04-11T20:32:44.250Z,3.30
2023-04-11T20:35:54.755Z,1.43
2023-04-11T20:39:03.205Z,0.90
2023-04-11T20:42:12.372Z,0.70
2023-04-11T20:45:22.147Z,2.57
2023-04-11T20:48:32.055Z,2.47
2023-04-11T20:51:40.140Z,2.47
2023-04-11T20:54:48.854Z,2.67
2023-04-11T20:57:57.414Z,1.27
2023-04-11T21:01:07.388Z,1.40
2023-04-11T21:04:17.816Z,1.50
2023-04-11T21:07:26.342Z,1.50
2023-04-11T21:10:34.603Z,1.47
2023-04-11T21:13:42.741Z,1.37
2023-04-11T21:16:52.292Z,1.27
2023-04-11T21:20:00.476Z,2.17
2023-04-11T21:23:08.683Z,2.03
2023-04-11T21:26:16.891Z,2.20
2023-04-11T21:29:25.632Z,1.80
2023-04-11T21:32:35.323Z,2.00
2023-04-11T21:35:43.521Z,1.57
2023-04-11T21:38:51.743Z,1.60
2023-04-11T21:42:00.218Z,1.23
2023-04-11T21:45:10.046Z,1.40
2023-04-11T21:48:19.531Z,1.97
2023-04-11T21:51:28.859Z,1.90
2023-04-11T21:54:37.059Z,1.90
2023-04-11T21:57:45.284Z,1.80
2023-04-11T22:00:53.441Z,2.13
2023-04-11T22:04:03.652Z,2.10
2023-04-11T22:07:14.982Z,3.47
2023-04-11T22:10:32.433Z,3.20
2023-04-11T22:13:46.952Z,1.90
2023-04-11T22:16:58.183Z,1.70
2023-04-11T22:20:11.173Z,2.40
2023-04-11T22:23:19.352Z,3.13
2023-04-11T22:26:33.958Z,2.10
2023-04-11T22:29:42.338Z,2.87
2023-04-11T22:32:51.216Z,2.30
2023-04-11T22:36:00.877Z,2.20
2023-04-11T22:39:10.537Z,2.10
2023-04-11T22:42:18.933Z,2.70
2023-04-11T22:45:27.345Z,2.87
2023-04-11T22:48:36.445Z,2.03
2023-04-11T22:51:46.176Z,2.90
2023-04-11T22:54:57.174Z,3.07
2023-04-11T22:58:05.481Z,1.60
2023-04-11T23:01:14.628Z,1.50
2023-04-11T23:04:23.316Z,1.10
2023-04-11T23:07:33.318Z,1.30
2023-04-11T23:10:42.466Z,1.60
2023-04-11T23:13:50.548Z,1.67
2023-04-11T23:16:58.853Z,1.50
2023-04-11T23:20:11.121Z,1.40
2023-04-11T23:23:21.138Z,1.30
2023-04-11T23:26:29.246Z,0.87
2023-04-11T23:29:37.945Z,1.07
2023-04-11T23:32:46.149Z,1.10
2023-04-11T23:35:54.622Z,0.70
2023-04-11T23:39:05.805Z,0.90
2023-04-11T23:42:13.939Z,1.07
2023-04-11T23:45:22.859Z,1.13
2023-04-11T23:48:31.243Z,1.00
2023-04-11T23:51:41.238Z,1.40
2023-04-11T23:54:50.939Z,1.10
2023-04-11T23:57:59.365Z,0.97
